Time;durP1;ratioP1;P1;durP2;ratioP2;P2;SDS_P1;SDS_P2;PMS_P1;PMS_P2;Temp;Humidity;BMP_temperature;BMP_pressure;BME280_temperature;BME280_humidity;BME280_pressure;Samples;Min_cycle;Max_cycle;Signal;HPM_P1;HPM_P2
2023/05/05 00:00:17;;;;;;;;;;;11.50;1.00;;;;;;4898681;29;20332;-72
2023/05/05 00:02:42;;;;;;;;;;;11.50;1.00;;;;;;4897433;29;20393;-72
2023/05/05 00:05:08;;;;;;;;;;;11.50;1.00;;;;;;4898537;29;19982;-72
2023/05/05 00:07:34;;;;;;;;;;;11.50;1.00;;;;;;4898029;29;19959;-72
2023/05/05 00:09:59;;;;;;;;;;;11.50;1.00;;;;;;4898279;29;20436;-73
2023/05/05 00:12:25;;;;;;;;;;;11.40;1.00;;;;;;4897313;29;19986;-72
2023/05/05 00:14:50;;;;;;;;;;;11.40;1.00;;;;;;4897655;29;19923;-72
2023/05/05 00:17:16;;;;;;;;;;;11.40;1.00;;;;;;4897826;29;19979;-71
2023/05/05 00:19:41;;;;;;;;;;;11.30;1.00;;;;;;4898700;29;19971;-71
2023/05/05 00:22:07;;;;;;;;;;;11.30;1.00;;;;;;4897299;29;19927;-71
2023/05/05 00:24:32;;;;;;;;;;;11.30;1.00;;;;;;4898603;29;19968;-72
2023/05/05 00:26:58;;;;;;;;;;;11.30;1.00;;;;;;4865858;29;19939;-72
2023/05/05 00:29:24;;;;;;;;;;;11.30;1.00;;;;;;4898584;29;19946;-72
2023/05/05 00:31:50;;;;;;;;;;;11.30;1.00;;;;;;4898335;29;19982;-72
2023/05/05 00:34:16;;;;;;;;;;;11.30;1.00;;;;;;4897476;29;20510;-72
2023/05/05 00:36:42;;;;;;;;;;;11.20;1.00;;;;;;4898355;29;20392;-73
2023/05/05 00:39:07;;;;;;;;;;;11.20;1.00;;;;;;4896731;29;19931;-72
2023/05/05 00:41:33;;;;;;;;;;;11.30;1.00;;;;;;4897416;29;19923;-72
2023/05/05 00:43:58;;;;;;;;;;;11.30;1.00;;;;;;4896586;29;19972;-73
2023/05/05 00:46:29;;;;;;;;;;;11.30;1.00;;;;;;4881595;29;19930;-73
2023/05/05 00:48:55;;;;;;;;;;;11.30;1.00;;;;;;4897839;29;19924;-73
2023/05/05 00:51:20;;;;;;;;;;;11.30;1.00;;;;;;4897537;29;20093;-73
2023/05/05 00:53:46;;;;;;;;;;;11.30;1.00;;;;;;4880652;29;20014;-72
2023/05/05 00:56:13;;;;;;;;;;;11.20;1.00;;;;;;4897632;29;19923;-72
2023/05/05 00:58:42;;;;;;;;;;;11.20;1.00;;;;;;4897922;29;19924;-73
2023/05/05 01:01:08;;;;;;;;;;;11.30;1.00;;;;;;4897499;29;19923;-73
2023/05/05 01:03:37;;;;;;;;;;;11.20;1.00;;;;;;4897423;29;19924;-73
2023/05/05 01:06:09;;;;;;;;;;;11.20;1.00;;;;;;4897575;29;19970;-73
2023/05/05 01:08:55;;;;;;;;;;;11.20;1.00;;;;;;4897002;29;20019;-72
2023/05/05 01:11:50;;;;;;;;;;;11.20;1.00;;;;;;4896946;29;20043;-73
2023/05/05 01:14:18;;;;;;;;;;;11.20;1.00;;;;;;4884695;29;19927;-73
2023/05/05 01:16:56;;;;;;;;;;;11.10;1.00;;;;;;4897842;29;19923;-73
2023/05/05 01:19:40;;;;;;;;;;;11.20;1.00;;;;;;4896376;29;19978;-73
2023/05/05 01:22:06;;;;;;;;;;;11.20;1.00;;;;;;4896272;29;19931;-73
2023/05/05 01:24:33;;;;;;;;;;;11.30;1.00;;;;;;4891567;29;20006;-73
2023/05/05 01:27:13;;;;;;;;;;;11.30;1.00;;;;;;4878850;29;20181;-73
2023/05/05 01:29:39;;;;;;;;;;;11.30;1.00;;;;;;4878931;29;19931;-72
2023/05/05 01:32:15;;;;;;;;;;;11.30;1.00;;;;;;4908437;29;19927;-71
2023/05/05 01:34:44;;;;;;;;;;;11.30;1.00;;;;;;4883371;29;19971;-72
2023/05/05 01:37:15;;;;;;;;;;;11.30;1.00;;;;;;4896433;29;19974;-72
2023/05/05 01:39:41;;;;;;;;;;;11.30;1.00;;;;;;4897531;29;19923;-72
2023/05/05 01:42:09;;;;;;;;;;;11.30;1.00;;;;;;4897077;29;19924;-72
2023/05/05 01:44:35;;;;;;;;;;;11.20;1.00;;;;;;4896420;29;19930;-73
2023/05/05 01:47:02;;;;;;;;;;;11.20;1.00;;;;;;4898907;29;19923;-72
2023/05/05 01:49:27;;;;;;;;;;;11.20;1.00;;;;;;4900930;29;19927;-72
2023/05/05 01:51:54;;;;;;;;;;;11.20;1.00;;;;;;4900578;29;20290;-73
2023/05/05 01:54:23;;;;;;;;;;;11.20;1.00;;;;;;4899494;29;19923;-72
2023/05/05 01:56:49;;;;;;;;;;;11.30;1.00;;;;;;4901143;29;20405;-72
2023/05/05 01:59:15;;;;;;;;;;;11.30;1.00;;;;;;4900843;29;20266;-72
2023/05/05 02:01:43;;;;;;;;;;;11.30;1.00;;;;;;4900972;29;20311;-72
2023/05/05 02:04:09;;;;;;;;;;;11.30;1.00;;;;;;4900816;29;19923;-73
2023/05/05 02:06:36;;;;;;;;;;;11.40;1.00;;;;;;4900030;29;19931;-73
2023/05/05 02:09:02;;;;;;;;;;;11.30;1.00;;;;;;4900186;29;19931;-72
2023/05/05 02:11:28;;;;;;;;;;;11.40;1.00;;;;;;4900607;29;19927;-72
2023/05/05 02:13:54;;;;;;;;;;;11.40;1.00;;;;;;4900691;29;19930;-74
2023/05/05 02:16:20;;;;;;;;;;;11.40;1.00;;;;;;4900599;29;19931;-73
2023/05/05 02:18:46;;;;;;;;;;;11.40;1.00;;;;;;4900619;29;19927;-72
2023/05/05 02:21:13;;;;;;;;;;;11.30;1.00;;;;;;4900538;29;19967;-73
2023/05/05 02:23:39;;;;;;;;;;;11.30;1.00;;;;;;4899824;29;19931;-72
2023/05/05 02:26:09;;;;;;;;;;;11.30;1.00;;;;;;4882541;29;19923;-72
2023/05/05 02:28:37;;;;;;;;;;;11.30;1.00;;;;;;4880380;29;19924;-72
2023/05/05 02:31:04;;;;;;;;;;;11.30;1.00;;;;;;4882029;29;19967;-72
2023/05/05 02:33:32;;;;;;;;;;;11.20;1.00;;;;;;4881313;29;19924;-72
2023/05/05 02:36:03;;;;;;;;;;;11.30;1.00;;;;;;4896068;29;19995;-72
2023/05/05 02:38:29;;;;;;;;;;;11.20;1.00;;;;;;4899288;29;19923;-72
2023/05/05 02:40:56;;;;;;;;;;;11.20;1.00;;;;;;4900459;29;19971;-72
2023/05/05 02:43:23;;;;;;;;;;;11.20;1.00;;;;;;4899820;29;19933;-73
2023/05/05 02:45:49;;;;;;;;;;;11.20;1.00;;;;;;4900372;29;19923;-73
2023/05/05 02:48:14;;;;;;;;;;;11.10;1.00;;;;;;4899874;29;20006;-73
2023/05/05 02:50:40;;;;;;;;;;;11.10;1.00;;;;;;4899982;29;20013;-71
2023/05/05 02:53:06;;;;;;;;;;;11.10;1.00;;;;;;4898240;29;19931;-71
2023/05/05 02:55:54;;;;;;;;;;;11.10;1.00;;;;;;4899742;29;20388;-71
2023/05/05 02:58:20;;;;;;;;;;;11.10;1.00;;;;;;4899386;29;19927;-72
2023/05/05 03:00:56;;;;;;;;;;;11.00;1.00;;;;;;4900152;29;20443;-72
2023/05/05 03:03:29;;;;;;;;;;;11.00;1.00;;;;;;4898134;29;19950;-73
2023/05/05 03:06:01;;;;;;;;;;;11.00;1.00;;;;;;4900513;29;19923;-72
2023/05/05 03:08:35;;;;;;;;;;;10.90;1.00;;;;;;4898727;29;19923;-71
2023/05/05 03:11:05;;;;;;;;;;;10.90;1.00;;;;;;4883506;29;19923;-72
2023/05/05 03:13:33;;;;;;;;;;;10.90;1.00;;;;;;4899466;29;20006;-72
2023/05/05 03:16:03;;;;;;;;;;;10.90;1.00;;;;;;4898580;29;20312;-72
2023/05/05 03:18:30;;;;;;;;;;;11.00;1.00;;;;;;4899319;29;19951;-72
2023/05/05 03:20:55;;;;;;;;;;;10.90;1.00;;;;;;4899493;29;19931;-72
2023/05/05 03:23:21;;;;;;;;;;;10.90;1.00;;;;;;4898416;29;19935;-74
2023/05/05 03:25:47;;;;;;;;;;;10.90;1.00;;;;;;4899732;29;19931;-71
2023/05/05 03:28:14;;;;;;;;;;;10.90;1.00;;;;;;4898149;29;19923;-71
2023/05/05 03:30:40;;;;;;;;;;;10.90;1.00;;;;;;4899357;29;19930;-72
2023/05/05 03:33:06;;;;;;;;;;;10.90;1.00;;;;;;4899397;29;19931;-72
2023/05/05 03:35:32;;;;;;;;;;;10.90;1.00;;;;;;4897926;29;20292;-72
2023/05/05 03:37:57;;;;;;;;;;;11.00;1.00;;;;;;4898400;29;19923;-71
2023/05/05 03:40:23;;;;;;;;;;;11.00;1.00;;;;;;4899169;29;19971;-71
2023/05/05 03:42:49;;;;;;;;;;;11.30;1.00;;;;;;4899077;29;19971;-71
2023/05/05 03:45:14;;;;;;;;;;;11.00;1.00;;;;;;4899205;29;20441;-72
2023/05/05 03:47:40;;;;;;;;;;;11.10;1.00;;;;;;4898741;29;19935;-71
2023/05/05 03:50:06;;;;;;;;;;;11.10;1.00;;;;;;4898856;29;19933;-72
2023/05/05 03:52:31;;;;;;;;;;;11.20;1.00;;;;;;4898059;29;19927;-72
2023/05/05 03:54:58;;;;;;;;;;;11.20;1.00;;;;;;4899141;29;19931;-71
2023/05/05 03:57:24;;;;;;;;;;;11.30;1.00;;;;;;4898545;29;20321;-72
2023/05/05 03:59:50;;;;;;;;;;;11.30;14.10;;;;;;4897732;29;20051;-73
2023/05/05 04:02:16;;;;;;;;;;;10.80;99.90;;;;;;4898768;29;19971;-75
2023/05/05 04:04:41;;;;;;;;;;;10.30;1.00;;;;;;4898232;29;19923;-76
2023/05/05 04:07:07;;;;;;;;;;;10.30;99.90;;;;;;4898014;29;19927;-75
2023/05/05 04:09:32;;;;;;;;;;;10.50;99.90;;;;;;4897103;29;20330;-75
2023/05/05 04:11:58;;;;;;;;;;;10.10;99.90;;;;;;4898863;29;19923;-76
2023/05/05 04:14:23;;;;;;;;;;;10.70;99.90;;;;;;4899004;29;19963;-78
2023/05/05 04:16:49;;;;;;;;;;;12.00;99.90;;;;;;4897068;29;19934;-78
2023/05/05 04:19:15;;;;;;;;;;;10.40;99.90;;;;;;4898683;29;19993;-78
2023/05/05 04:21:40;;;;;;;;;;;10.40;99.90;;;;;;4898538;29;20412;-80
2023/05/05 04:24:06;;;;;;;;;;;10.30;99.90;;;;;;4894964;29;19975;-80
2023/05/05 04:26:31;;;;;;;;;;;10.80;99.90;;;;;;4878579;29;19928;-80
2023/05/05 04:28:57;;;;;;;;;;;10.60;99.90;;;;;;4879566;29;19930;-80
2023/05/05 04:31:23;;;;;;;;;;;10.30;99.90;;;;;;4880168;29;19979;-80
2023/05/05 04:33:48;;;;;;;;;;;10.70;99.90;;;;;;4909103;29;19923;-80
2023/05/05 04:36:14;;;;;;;;;;;12.20;99.90;;;;;;4895165;29;19927;-80
2023/05/05 04:38:39;;;;;;;;;;;10.80;99.90;;;;;;4896153;29;19970;-80
2023/05/05 04:41:05;;;;;;;;;;;10.30;99.90;;;;;;4897583;29;19958;-80
2023/05/05 04:43:30;;;;;;;;;;;10.60;99.90;;;;;;4896922;29;20014;-84
2023/05/05 04:45:56;;;;;;;;;;;11.60;99.90;;;;;;4898326;29;20399;-76
2023/05/05 04:48:22;;;;;;;;;;;11.00;99.90;;;;;;4897721;29;19974;-75
2023/05/05 04:50:47;;;;;;;;;;;10.30;99.90;;;;;;4897794;29;19982;-73
2023/05/05 04:53:13;;;;;;;;;;;10.70;99.90;;;;;;4897170;29;19946;-73
2023/05/05 04:55:38;;;;;;;;;;;10.90;99.90;;;;;;4897900;29;19983;-75
2023/05/05 04:58:04;;;;;;;;;;;9.90;99.90;;;;;;4896729;29;19924;-73
2023/05/05 05:00:30;;;;;;;;;;;10.30;99.90;;;;;;4897722;29;20400;-87
2023/05/05 05:02:55;;;;;;;;;;;10.50;99.90;;;;;;4897361;29;20304;-73
2023/05/05 05:05:21;;;;;;;;;;;11.00;99.90;;;;;;4897874;29;19927;-73
2023/05/05 05:07:47;;;;;;;;;;;10.90;99.90;;;;;;4880085;29;20018;-73
2023/05/05 05:10:12;;;;;;;;;;;11.00;99.90;;;;;;4898105;29;19930;-74
2023/05/05 05:12:38;;;;;;;;;;;10.40;99.90;;;;;;4897286;29;19923;-73
2023/05/05 05:15:04;;;;;;;;;;;11.00;99.90;;;;;;4898017;29;20329;-73
2023/05/05 05:17:29;;;;;;;;;;;10.40;99.90;;;;;;4897558;29;19979;-73
2023/05/05 05:19:58;;;;;;;;;;;11.10;99.90;;;;;;4896279;29;19978;-74
2023/05/05 05:22:23;;;;;;;;;;;10.50;99.90;;;;;;4896698;29;19970;-75
2023/05/05 05:24:49;;;;;;;;;;;10.10;99.90;;;;;;4888959;29;19967;-73
2023/05/05 05:27:14;;;;;;;;;;;10.00;99.90;;;;;;4878622;29;20025;-74
2023/05/05 05:29:40;;;;;;;;;;;10.20;99.90;;;;;;4908954;29;19966;-73
2023/05/05 05:32:05;;;;;;;;;;;10.10;99.90;;;;;;4878063;29;19927;-73
2023/05/05 05:34:31;;;;;;;;;;;10.20;99.90;;;;;;4880810;29;19927;-73
2023/05/05 05:36:56;;;;;;;;;;;10.10;99.90;;;;;;4895984;29;19927;-78
2023/05/05 05:39:22;;;;;;;;;;;10.70;99.90;;;;;;4897585;29;19923;-73
2023/05/05 05:41:48;;;;;;;;;;;11.00;99.90;;;;;;4897187;29;20383;-74
2023/05/05 05:44:13;;;;;;;;;;;11.10;99.90;;;;;;4897477;29;19978;-76
2023/05/05 05:46:39;;;;;;;;;;;10.80;99.90;;;;;;4896950;29;19946;-73
2023/05/05 05:49:04;;;;;;;;;;;11.20;99.90;;;;;;4897191;29;19930;-72
2023/05/05 05:51:30;;;;;;;;;;;11.30;99.90;;;;;;4897557;29;19923;-74
2023/05/05 05:53:55;;;;;;;;;;;11.10;99.90;;;;;;4895176;29;20454;-73
2023/05/05 05:56:21;;;;;;;;;;;11.60;99.90;;;;;;4897177;29;19927;-72
2023/05/05 05:58:50;;;;;;;;;;;11.40;99.90;;;;;;4897125;29;20357;-73
2023/05/05 06:01:15;;;;;;;;;;;11.50;99.90;;;;;;4897450;29;20333;-73
2023/05/05 06:03:41;;;;;;;;;;;11.70;99.90;;;;;;4896793;29;19956;-73
2023/05/05 06:06:07;;;;;;;;;;;11.30;99.90;;;;;;4896444;29;19924;-73
2023/05/05 06:08:32;;;;;;;;;;;11.50;99.90;;;;;;4896367;29;19924;-73
2023/05/05 06:10:59;;;;;;;;;;;11.50;99.90;;;;;;4895977;29;20271;-73
2023/05/05 06:13:24;;;;;;;;;;;11.50;99.90;;;;;;4897153;29;20014;-74
2023/05/05 06:15:50;;;;;;;;;;;11.90;99.90;;;;;;4896929;29;19989;-73
2023/05/05 06:18:16;;;;;;;;;;;12.10;99.90;;;;;;4896882;29;19934;-74
2023/05/05 06:20:42;;;;;;;;;;;11.70;99.90;;;;;;4897012;29;20280;-74
2023/05/05 06:23:07;;;;;;;;;;;12.30;99.90;;;;;;4896072;29;19923;-74
2023/05/05 06:25:33;;;;;;;;;;;12.50;99.90;;;;;;4897299;29;20377;-75
2023/05/05 06:27:59;;;;;;;;;;;12.10;99.90;;;;;;4896659;29;19930;-74
2023/05/05 06:30:25;;;;;;;;;;;12.30;99.90;;;;;;4897025;29;20385;-74
2023/05/05 06:32:50;;;;;;;;;;;12.10;99.90;;;;;;4897739;29;20017;-74
2023/05/05 06:35:16;;;;;;;;;;;11.60;99.90;;;;;;4900434;29;20079;-74
2023/05/05 06:37:43;;;;;;;;;;;12.00;99.90;;;;;;4898363;29;19924;-74
2023/05/05 06:40:09;;;;;;;;;;;12.40;99.90;;;;;;4900563;29;20020;-74
2023/05/05 06:42:35;;;;;;;;;;;12.40;99.90;;;;;;4900307;29;20428;-73
2023/05/05 06:45:00;;;;;;;;;;;12.10;99.90;;;;;;4900026;29;19923;-74
2023/05/05 06:47:26;;;;;;;;;;;12.60;99.90;;;;;;4900152;29;20344;-74
2023/05/05 06:49:52;;;;;;;;;;;12.00;99.90;;;;;;4899725;29;20010;-75
2023/05/05 06:52:18;;;;;;;;;;;11.90;99.90;;;;;;4899341;29;20017;-75
2023/05/05 06:54:43;;;;;;;;;;;12.20;99.90;;;;;;4900322;29;20038;-75
2023/05/05 06:57:09;;;;;;;;;;;11.90;99.90;;;;;;4899611;29;20372;-75
2023/05/05 06:59:35;;;;;;;;;;;11.70;99.90;;;;;;4900400;29;20266;-76
2023/05/05 07:02:00;;;;;;;;;;;12.30;99.90;;;;;;4899233;29;19930;-76
2023/05/05 07:04:26;;;;;;;;;;;12.40;99.90;;;;;;4883280;29;19924;-75
2023/05/05 07:06:54;;;;;;;;;;;12.50;99.90;;;;;;4899070;29;19923;-77
2023/05/05 07:09:19;;;;;;;;;;;12.30;99.90;;;;;;4899843;29;20001;-76
2023/05/05 07:11:45;;;;;;;;;;;12.40;99.90;;;;;;4900144;29;20009;-80
2023/05/05 07:14:11;;;;;;;;;;;12.00;99.90;;;;;;4898100;29;19923;-76
2023/05/05 07:16:37;;;;;;;;;;;12.10;99.90;;;;;;4899795;29;19923;-76
2023/05/05 07:19:06;;;;;;;;;;;12.10;99.90;;;;;;4898276;29;19923;-76
2023/05/05 07:21:32;;;;;;;;;;;13.50;99.90;;;;;;4899762;29;19966;-77
2023/05/05 07:23:58;;;;;;;;;;;14.50;99.90;;;;;;4896367;29;19924;-78
2023/05/05 07:26:24;;;;;;;;;;;15.70;99.90;;;;;;4881110;29;19930;-79
2023/05/05 07:28:54;;;;;;;;;;;16.00;99.90;;;;;;4880393;29;19971;-81
2023/05/05 07:31:20;;;;;;;;;;;16.00;99.90;;;;;;4881061;29;20318;-81
2023/05/05 07:33:46;;;;;;;;;;;17.20;99.90;;;;;;4879602;29;20337;-82
2023/05/05 07:36:12;;;;;;;;;;;17.60;99.90;;;;;;4896382;29;20014;-82
2023/05/05 07:38:37;;;;;;;;;;;18.10;99.90;;;;;;4897653;29;20368;-83
2023/05/05 07:41:03;;;;;;;;;;;18.20;99.90;;;;;;4898930;29;20313;-84
2023/05/05 07:43:28;;;;;;;;;;;18.30;99.90;;;;;;4897695;29;20009;-84
2023/05/05 07:45:54;;;;;;;;;;;19.40;99.90;;;;;;4897163;29;19927;-84
2023/05/05 07:48:20;;;;;;;;;;;19.30;99.90;;;;;;4899190;29;20440;-84
2023/05/05 07:50:45;;;;;;;;;;;19.90;99.90;;;;;;4898459;29;19935;-84
2023/05/05 07:53:11;;;;;;;;;;;20.50;99.90;;;;;;4897868;29;19923;-83
2023/05/05 07:55:36;;;;;;;;;;;20.90;99.90;;;;;;4899284;29;19923;-83
2023/05/05 07:58:02;;;;;;;;;;;20.40;99.90;;;;;;4898199;29;19979;-82
2023/05/05 08:00:28;;;;;;;;;;;20.90;99.90;;;;;;4899434;29;19924;-82
2023/05/05 08:02:54;;;;;;;;;;;21.50;1.00;;;;;;4898147;29;19931;-82
2023/05/05 08:05:19;;;;;;;;;;;20.80;1.00;;;;;;4898862;29;19923;-81
2023/05/05 08:07:45;;;;;;;;;;;20.20;1.00;;;;;;4896690;29;19931;-81
2023/05/05 08:10:10;;;;;;;;;;;20.30;94.60;;;;;;4898570;29;19931;-81
2023/05/05 08:12:36;;;;;;;;;;;20.90;18.20;;;;;;4898734;29;19927;-80
2023/05/05 08:15:02;;;;;;;;;;;20.80;1.00;;;;;;4897243;29;20373;-79
2023/05/05 08:17:28;;;;;;;;;;;20.80;1.00;;;;;;4897476;29;19923;-80
2023/05/05 08:19:53;;;;;;;;;;;21.10;1.00;;;;;;4896917;29;20436;-80
2023/05/05 08:22:20;;;;;;;;;;;22.10;1.00;;;;;;4896625;29;19923;-79
2023/05/05 08:24:46;;;;;;;;;;;23.40;1.00;;;;;;4890282;29;19928;-79
2023/05/05 08:27:12;;;;;;;;;;;24.20;1.00;;;;;;4879437;29;19976;-79
2023/05/05 08:29:38;;;;;;;;;;;25.00;1.00;;;;;;4879907;29;20018;-78
2023/05/05 08:32:04;;;;;;;;;;;23.90;1.00;;;;;;4879275;29;19970;-79
2023/05/05 08:34:29;;;;;;;;;;;22.90;1.00;;;;;;4912768;29;19931;-79
2023/05/05 08:36:55;;;;;;;;;;;23.50;1.00;;;;;;4896029;29;20386;-79
2023/05/05 08:39:21;;;;;;;;;;;23.10;1.00;;;;;;4898304;29;20418;-78
2023/05/05 08:41:46;;;;;;;;;;;23.80;1.00;;;;;;4897954;29;19930;-78
2023/05/05 08:44:12;;;;;;;;;;;24.30;1.00;;;;;;4897674;29;19931;-78
2023/05/05 08:46:38;;;;;;;;;;;24.70;1.00;;;;;;4898034;29;19923;-78
2023/05/05 08:49:04;;;;;;;;;;;25.80;1.00;;;;;;4896390;29;20358;-78
2023/05/05 08:51:31;;;;;;;;;;;25.30;1.00;;;;;;4898295;29;19946;-78
2023/05/05 08:54:00;;;;;;;;;;;25.70;1.00;;;;;;4895654;29;19923;-78
2023/05/05 08:56:30;;;;;;;;;;;25.40;1.00;;;;;;4896899;29;19934;-77
2023/05/05 08:58:56;;;;;;;;;;;25.10;1.00;;;;;;4896501;29;19932;-81
2023/05/05 09:01:22;;;;;;;;;;;24.70;1.00;;;;;;4897991;29;20307;-77
2023/05/05 09:03:48;;;;;;;;;;;25.10;1.00;;;;;;4897370;29;19981;-78
2023/05/05 09:06:13;;;;;;;;;;;24.50;1.00;;;;;;4897737;29;20287;-77
2023/05/05 09:08:40;;;;;;;;;;;25.00;1.00;;;;;;4895732;29;19923;-78
2023/05/05 09:11:05;;;;;;;;;;;26.20;1.00;;;;;;4896341;29;20292;-77
2023/05/05 09:13:31;;;;;;;;;;;25.70;1.00;;;;;;4896501;29;19924;-77
2023/05/05 09:15:57;;;;;;;;;;;25.70;1.00;;;;;;4897964;29;19962;-77
2023/05/05 09:18:23;;;;;;;;;;;26.30;1.00;;;;;;4897623;29;20377;-78
2023/05/05 09:20:48;;;;;;;;;;;26.40;1.00;;;;;;4897661;29;20011;-77
2023/05/05 09:23:15;;;;;;;;;;;25.30;1.00;;;;;;4895402;29;19927;-77
2023/05/05 09:25:42;;;;;;;;;;;24.70;1.00;;;;;;4881535;29;19924;-77
2023/05/05 09:28:12;;;;;;;;;;;24.60;1.00;;;;;;4878814;29;19971;-77
2023/05/05 09:30:38;;;;;;;;;;;24.40;1.00;;;;;;4878057;29;20381;-77
2023/05/05 09:33:04;;;;;;;;;;;25.00;1.00;;;;;;4878330;29;19979;-77
2023/05/05 09:35:46;;;;;;;;;;;26.00;1.00;;;;;;4889624;29;19923;-77
2023/05/05 09:38:12;;;;;;;;;;;25.90;1.00;;;;;;4896110;29;19931;-77
2023/05/05 09:40:46;;;;;;;;;;;25.70;1.00;;;;;;4897601;29;19923;-78
2023/05/05 09:43:11;;;;;;;;;;;25.30;1.00;;;;;;4895790;29;19924;-77
2023/05/05 09:45:37;;;;;;;;;;;25.30;1.00;;;;;;4897518;29;19923;-77
2023/05/05 09:48:03;;;;;;;;;;;24.70;1.00;;;;;;4896771;29;19923;-77
2023/05/05 09:50:31;;;;;;;;;;;24.50;1.00;;;;;;4881063;29;20010;-77
2023/05/05 09:52:58;;;;;;;;;;;23.80;1.00;;;;;;4896300;29;19971;-79
2023/05/05 09:55:23;;;;;;;;;;;24.00;1.00;;;;;;4896154;29;20361;-77
2023/05/05 09:57:49;;;;;;;;;;;23.70;1.00;;;;;;4896144;29;19923;-78
2023/05/05 10:00:15;;;;;;;;;;;24.20;1.00;;;;;;4896255;29;19930;-77
2023/05/05 10:02:40;;;;;;;;;;;24.10;1.00;;;;;;4895776;29;19924;-77
2023/05/05 10:05:11;;;;;;;;;;;25.10;1.00;;;;;;4895636;29;19927;-77
2023/05/05 10:07:37;;;;;;;;;;;24.30;1.00;;;;;;4896312;29;20266;-77
2023/05/05 10:10:04;;;;;;;;;;;23.90;1.00;;;;;;4884676;29;20373;-76
2023/05/05 10:12:30;;;;;;;;;;;23.70;1.00;;;;;;4900723;29;20021;-77
2023/05/05 10:14:56;;;;;;;;;;;23.70;1.00;;;;;;4899669;29;19993;-77
2023/05/05 10:17:22;;;;;;;;;;;23.80;1.00;;;;;;4900275;29;19927;-76
2023/05/05 10:19:51;;;;;;;;;;;23.90;1.00;;;;;;4899523;29;19923;-76
2023/05/05 10:22:20;;;;;;;;;;;24.00;1.00;;;;;;4898254;29;19927;-77
2023/05/05 10:24:49;;;;;;;;;;;23.90;1.00;;;;;;4899942;29;20494;-77
2023/05/05 10:27:16;;;;;;;;;;;24.10;1.00;;;;;;4883713;29;20040;-77
2023/05/05 10:29:53;;;;;;;;;;;23.90;1.00;;;;;;4900797;29;19931;-76
2023/05/05 10:32:22;;;;;;;;;;;24.50;1.00;;;;;;4899144;29;19931;-76
2023/05/05 10:34:58;;;;;;;;;;;24.70;1.00;;;;;;4900127;29;20388;-76
2023/05/05 10:37:24;;;;;;;;;;;24.50;1.00;;;;;;4899473;29;19974;-76
2023/05/05 10:39:51;;;;;;;;;;;23.90;1.00;;;;;;4899654;29;19924;-76
2023/05/05 10:42:18;;;;;;;;;;;23.50;1.00;;;;;;4900003;29;19924;-76
2023/05/05 10:44:43;;;;;;;;;;;23.30;1.00;;;;;;4899649;29;19963;-76
2023/05/05 10:47:09;;;;;;;;;;;23.20;1.00;;;;;;4883304;29;19974;-83
2023/05/05 10:49:44;;;;;;;;;;;23.20;1.00;;;;;;4900450;29;19924;-76
2023/05/05 10:52:27;;;;;;;;;;;23.20;1.00;;;;;;4882501;29;19927;-81
2023/05/05 10:55:02;;;;;;;;;;;23.40;1.00;;;;;;4900264;29;20010;-76
2023/05/05 10:57:28;;;;;;;;;;;23.80;1.00;;;;;;4898075;29;19930;-76
2023/05/05 10:59:53;;;;;;;;;;;24.50;1.00;;;;;;4900127;29;19927;-77
2023/05/05 11:02:20;;;;;;;;;;;25.30;1.00;;;;;;4899377;29;19923;-76
2023/05/05 11:05:07;;;;;;;;;;;25.10;1.00;;;;;;4900174;29;20320;-76
2023/05/05 11:07:33;;;;;;;;;;;26.30;1.00;;;;;;4898235;29;19927;-77
2023/05/05 11:10:00;;;;;;;;;;;27.30;1.00;;;;;;4899175;29;20410;-76
2023/05/05 11:12:26;;;;;;;;;;;28.00;1.00;;;;;;4899587;29;20373;-76
2023/05/05 11:15:10;;;;;;;;;;;27.70;1.00;;;;;;4899973;29;19923;-76
2023/05/05 11:17:45;;;;;;;;;;;27.20;1.00;;;;;;4898075;29;20002;-76
2023/05/05 11:20:11;;;;;;;;;;;26.60;1.00;;;;;;4899818;29;20022;-76
2023/05/05 11:22:56;;;;;;;;;;;25.70;1.00;;;;;;4897080;29;20025;-76
2023/05/05 11:25:33;;;;;;;;;;;25.10;1.00;;;;;;4886358;29;20400;-76
2023/05/05 11:28:05;;;;;;;;;;;24.90;1.00;;;;;;4910942;29;19997;-76
2023/05/05 11:30:31;;;;;;;;;;;24.50;1.00;;;;;;4880560;29;19931;-76
2023/05/05 11:33:15;;;;;;;;;;;24.00;1.00;;;;;;4880798;29;19923;-76
2023/05/05 11:35:59;;;;;;;;;;;23.50;1.00;;;;;;4892726;29;19923;-77
2023/05/05 11:38:40;;;;;;;;;;;23.60;1.00;;;;;;4897060;29;19990;-76
2023/05/05 11:41:09;;;;;;;;;;;23.70;1.00;;;;;;4898575;29;19927;-75
2023/05/05 11:43:34;;;;;;;;;;;23.90;1.00;;;;;;4898801;29;20022;-77
2023/05/05 11:46:13;;;;;;;;;;;24.10;1.00;;;;;;4899532;29;20505;-76
2023/05/05 11:48:42;;;;;;;;;;;24.20;1.00;;;;;;4898744;29;19930;-76
2023/05/05 11:51:10;;;;;;;;;;;24.30;1.00;;;;;;4899349;29;20018;-76
2023/05/05 11:53:35;;;;;;;;;;;24.30;1.00;;;;;;4881284;29;19981;-76
2023/05/05 11:56:05;;;;;;;;;;;24.30;1.00;;;;;;4899273;29;19987;-76
2023/05/05 11:58:30;;;;;;;;;;;24.50;1.00;;;;;;4898528;29;19923;-76
2023/05/05 12:00:56;;;;;;;;;;;24.50;1.00;;;;;;4899123;29;19927;-76
2023/05/05 12:03:22;;;;;;;;;;;24.10;1.00;;;;;;4896987;29;19934;-76
2023/05/05 12:05:47;;;;;;;;;;;24.20;1.00;;;;;;4898982;29;20067;-76
2023/05/05 12:08:13;;;;;;;;;;;23.80;1.00;;;;;;4897995;29;20305;-76
2023/05/05 12:10:39;;;;;;;;;;;23.70;1.00;;;;;;4897573;29;20022;-76
2023/05/05 12:13:16;;;;;;;;;;;23.70;1.00;;;;;;4898464;29;20390;-76
2023/05/05 12:15:41;;;;;;;;;;;23.40;1.00;;;;;;4897670;29;19934;-76
2023/05/05 12:18:16;;;;;;;;;;;23.70;1.00;;;;;;4897188;29;19923;-77
2023/05/05 12:20:42;;;;;;;;;;;23.70;1.00;;;;;;4882124;29;19978;-76
2023/05/05 12:23:11;;;;;;;;;;;23.80;1.00;;;;;;4896261;29;19983;-76
2023/05/05 12:25:39;;;;;;;;;;;23.80;1.00;;;;;;4897116;29;19927;-76
2023/05/05 12:28:06;;;;;;;;;;;24.00;1.00;;;;;;4897201;29;19927;-75
2023/05/05 12:30:32;;;;;;;;;;;23.90;1.00;;;;;;4897638;29;19930;-76
2023/05/05 12:33:02;;;;;;;;;;;24.00;1.00;;;;;;4898009;29;19924;-75
2023/05/05 12:35:28;;;;;;;;;;;23.70;1.00;;;;;;4881494;29;19938;-75
2023/05/05 12:37:54;;;;;;;;;;;23.70;1.00;;;;;;4897360;29;19967;-75
2023/05/05 12:40:38;;;;;;;;;;;23.60;1.00;;;;;;4898373;29;19974;-75
2023/05/05 12:43:04;;;;;;;;;;;23.40;1.00;;;;;;4897194;29;19924;-75
2023/05/05 12:45:29;;;;;;;;;;;22.90;1.00;;;;;;4898035;29;19924;-76
2023/05/05 12:47:55;;;;;;;;;;;22.70;1.00;;;;;;4898086;29;19927;-77
2023/05/05 12:50:30;;;;;;;;;;;22.40;1.00;;;;;;4897848;29;19923;-75
2023/05/05 12:52:56;;;;;;;;;;;22.20;1.00;;;;;;4897174;29;19923;-75
2023/05/05 12:55:34;;;;;;;;;;;21.90;1.00;;;;;;4897348;29;19927;-75
2023/05/05 12:58:00;;;;;;;;;;;21.60;1.00;;;;;;4896742;29;19927;-75
2023/05/05 13:00:26;;;;;;;;;;;21.40;1.00;;;;;;4898465;29;19923;-75
2023/05/05 13:02:52;;;;;;;;;;;21.20;1.00;;;;;;4896058;29;19966;-74
2023/05/05 13:05:27;;;;;;;;;;;20.40;1.00;;;;;;4881490;29;20280;-76
2023/05/05 13:07:53;;;;;;;;;;;18.90;14.10;;;;;;4896104;29;20103;-76
2023/05/05 13:10:19;;;;;;;;;;;17.20;42.40;;;;;;4896955;29;20025;-78
2023/05/05 13:12:44;;;;;;;;;;;16.90;5.00;;;;;;4896561;29;19927;-87
2023/05/05 13:15:10;;;;;;;;;;;16.00;99.90;;;;;;4896740;29;19930;-80
2023/05/05 13:17:36;;;;;;;;;;;16.10;99.90;;;;;;4897373;29;19938;-78
2023/05/05 13:20:01;;;;;;;;;;;16.10;99.90;;;;;;4881282;29;19931;-78
2023/05/05 13:22:27;;;;;;;;;;;16.00;99.90;;;;;;4896853;29;19979;-78
2023/05/05 13:24:52;;;;;;;;;;;15.20;99.90;;;;;;4896370;29;19931;-78
2023/05/05 13:27:18;;;;;;;;;;;15.50;99.90;;;;;;4897611;29;20361;-76
2023/05/05 13:29:44;;;;;;;;;;;15.20;99.90;;;;;;4897187;29;19966;-76
2023/05/05 13:32:10;;;;;;;;;;;15.30;99.90;;;;;;4897336;29;19977;-76
2023/05/05 13:34:37;;;;;;;;;;;15.30;99.90;;;;;;4892511;29;19927;-75
2023/05/05 13:37:03;;;;;;;;;;;14.80;99.90;;;;;;4876905;29;20457;-75
2023/05/05 13:39:28;;;;;;;;;;;14.70;99.90;;;;;;4878940;29;19931;-75
2023/05/05 13:41:54;;;;;;;;;;;15.20;99.90;;;;;;4877436;29;20366;-76
2023/05/05 13:44:20;;;;;;;;;;;14.90;99.90;;;;;;4882503;29;20373;-76
2023/05/05 13:46:46;;;;;;;;;;;14.60;99.90;;;;;;4882222;29;19927;-77
2023/05/05 13:49:12;;;;;;;;;;;15.10;99.90;;;;;;4882665;29;19924;-77
2023/05/05 13:51:37;;;;;;;;;;;14.90;99.90;;;;;;4882418;29;20083;-77
2023/05/05 13:54:04;;;;;;;;;;;14.60;99.90;;;;;;4881852;29;19930;-77
2023/05/05 13:56:29;;;;;;;;;;;14.40;99.90;;;;;;4882395;29;19924;-82
2023/05/05 13:58:55;;;;;;;;;;;15.00;99.90;;;;;;4881986;29;19923;-78
2023/05/05 14:01:20;;;;;;;;;;;14.60;99.90;;;;;;4881562;29;20018;-80
2023/05/05 14:03:46;;;;;;;;;;;15.10;99.90;;;;;;4881589;29;19928;-80
2023/05/05 14:06:12;;;;;;;;;;;14.80;99.90;;;;;;4881642;29;19940;-80
2023/05/05 14:08:37;;;;;;;;;;;14.80;99.90;;;;;;4881113;29;20326;-80
2023/05/05 14:11:03;;;;;;;;;;;14.90;99.90;;;;;;4882299;29;19928;-80
2023/05/05 14:13:29;;;;;;;;;;;14.90;99.90;;;;;;4882269;29;19924;-80
2023/05/05 14:15:57;;;;;;;;;;;14.40;99.90;;;;;;4881759;29;19923;-80
2023/05/05 14:18:23;;;;;;;;;;;14.30;99.90;;;;;;4880942;29;19924;-80
2023/05/05 14:20:48;;;;;;;;;;;14.50;99.90;;;;;;4881923;29;19966;-80
2023/05/05 14:23:14;;;;;;;;;;;14.60;99.90;;;;;;4881427;29;20432;-80
2023/05/05 14:25:39;;;;;;;;;;;14.80;99.90;;;;;;4896666;29;20313;-81